sensor_id;sensor_type;location;lat;lon;timestamp;temperature;humidity
18906;DHT22;9585;51.018;4.282;2023-05-07T00:01:05;14.20;99.90
18906;DHT22;9585;51.018;4.282;2023-05-07T00:03:33;14.20;99.90
18906;DHT22;9585;51.018;4.282;2023-05-07T00:06:01;14.20;99.90
18906;DHT22;9585;51.018;4.282;2023-05-07T00:08:28;14.20;99.90
18906;DHT22;9585;51.018;4.282;2023-05-07T00:10:56;14.20;99.90
18906;DHT22;9585;51.018;4.282;2023-05-07T00:13:25;14.20;99.90
18906;DHT22;9585;51.018;4.282;2023-05-07T00:15:53;14.30;99.90
18906;DHT22;9585;51.018;4.282;2023-05-07T00:18:20;14.30;99.90
18906;DHT22;9585;51.018;4.282;2023-05-07T00:20:48;14.30;99.90
18906;DHT22;9585;51.018;4.282;2023-05-07T00:23:15;14.30;99.90
18906;DHT22;9585;51.018;4.282;2023-05-07T00:25:43;14.40;99.90
18906;DHT22;9585;51.018;4.282;2023-05-07T00:28:11;14.30;99.90
18906;DHT22;9585;51.018;4.282;2023-05-07T00:30:40;14.30;99.90
18906;DHT22;9585;51.018;4.282;2023-05-07T00:33:07;14.30;99.90
18906;DHT22;9585;51.018;4.282;2023-05-07T00:35:35;14.30;99.90
18906;DHT22;9585;51.018;4.282;2023-05-07T00:38:02;14.20;99.90
18906;DHT22;9585;51.018;4.282;2023-05-07T00:40:30;14.20;99.90
18906;DHT22;9585;51.018;4.282;2023-05-07T00:42:57;14.20;99.90
18906;DHT22;9585;51.018;4.282;2023-05-07T00:45:27;14.20;99.90
18906;DHT22;9585;51.018;4.282;2023-05-07T00:47:57;14.20;99.90
18906;DHT22;9585;51.018;4.282;2023-05-07T00:50:26;14.30;99.90
18906;DHT22;9585;51.018;4.282;2023-05-07T00:52:55;14.20;99.90
18906;DHT22;9585;51.018;4.282;2023-05-07T00:55:24;14.20;99.90
18906;DHT22;9585;51.018;4.282;2023-05-07T00:57:52;14.20;99.90
18906;DHT22;9585;51.018;4.282;2023-05-07T01:00:19;14.10;99.90
18906;DHT22;9585;51.018;4.282;2023-05-07T01:02:47;14.10;99.90
18906;DHT22;9585;51.018;4.282;2023-05-07T01:05:18;14.10;99.90
18906;DHT22;9585;51.018;4.282;2023-05-07T01:07:48;14.00;99.90
18906;DHT22;9585;51.018;4.282;2023-05-07T01:10:17;13.90;99.90
18906;DHT22;9585;51.018;4.282;2023-05-07T01:12:45;13.80;99.90
18906;DHT22;9585;51.018;4.282;2023-05-07T01:15:14;13.80;99.90
18906;DHT22;9585;51.018;4.282;2023-05-07T01:17:42;13.80;99.90
18906;DHT22;9585;51.018;4.282;2023-05-07T01:20:11;13.70;99.90
18906;DHT22;9585;51.018;4.282;2023-05-07T01:22:41;13.60;99.90
18906;DHT22;9585;51.018;4.282;2023-05-07T01:25:10;13.60;99.90
18906;DHT22;9585;51.018;4.282;2023-05-07T01:27:38;13.60;99.90
18906;DHT22;9585;51.018;4.282;2023-05-07T01:30:06;13.50;99.90
18906;DHT22;9585;51.018;4.282;2023-05-07T01:32:42;13.50;99.90
18906;DHT22;9585;51.018;4.282;2023-05-07T01:35:13;13.50;99.90
18906;DHT22;9585;51.018;4.282;2023-05-07T01:37:45;13.50;99.90
18906;DHT22;9585;51.018;4.282;2023-05-07T01:40:14;13.50;99.90
18906;DHT22;9585;51.018;4.282;2023-05-07T01:42:43;13.50;99.90
18906;DHT22;9585;51.018;4.282;2023-05-07T01:45:11;13.40;99.90
18906;DHT22;9585;51.018;4.282;2023-05-07T01:47:39;13.40;99.90
18906;DHT22;9585;51.018;4.282;2023-05-07T01:50:08;13.40;99.90
18906;DHT22;9585;51.018;4.282;2023-05-07T01:52:37;13.40;99.90
18906;DHT22;9585;51.018;4.282;2023-05-07T01:55:08;13.30;99.90
18906;DHT22;9585;51.018;4.282;2023-05-07T01:57:35;13.30;99.90
18906;DHT22;9585;51.018;4.282;2023-05-07T02:00:03;13.30;99.90
18906;DHT22;9585;51.018;4.282;2023-05-07T02:02:31;13.30;99.90
18906;DHT22;9585;51.018;4.282;2023-05-07T02:04:59;13.30;99.90
18906;DHT22;9585;51.018;4.282;2023-05-07T02:07:28;13.20;99.90
18906;DHT22;9585;51.018;4.282;2023-05-07T02:09:55;13.20;99.90
18906;DHT22;9585;51.018;4.282;2023-05-07T02:12:25;13.20;99.90
18906;DHT22;9585;51.018;4.282;2023-05-07T02:14:52;13.00;99.90
18906;DHT22;9585;51.018;4.282;2023-05-07T02:17:20;13.00;99.90
18906;DHT22;9585;51.018;4.282;2023-05-07T02:19:48;13.00;99.90
18906;DHT22;9585;51.018;4.282;2023-05-07T02:25:47;13.10;99.90
18906;DHT22;9585;51.018;4.282;2023-05-07T02:28:17;13.00;99.90
18906;DHT22;9585;51.018;4.282;2023-05-07T02:30:45;13.00;99.90
18906;DHT22;9585;51.018;4.282;2023-05-07T02:33:12;13.10;99.90
18906;DHT22;9585;51.018;4.282;2023-05-07T02:35:40;13.10;99.90
18906;DHT22;9585;51.018;4.282;2023-05-07T02:38:07;13.00;99.90
18906;DHT22;9585;51.018;4.282;2023-05-07T02:40:36;13.10;99.90
18906;DHT22;9585;51.018;4.282;2023-05-07T02:43:06;13.10;99.90
18906;DHT22;9585;51.018;4.282;2023-05-07T02:45:35;13.00;99.90
18906;DHT22;9585;51.018;4.282;2023-05-07T02:48:03;13.00;99.90
18906;DHT22;9585;51.018;4.282;2023-05-07T02:50:31;13.00;99.90
18906;DHT22;9585;51.018;4.282;2023-05-07T02:52:59;12.90;99.90
18906;DHT22;9585;51.018;4.282;2023-05-07T02:55:26;12.90;99.90
18906;DHT22;9585;51.018;4.282;2023-05-07T02:57:54;13.00;99.90
18906;DHT22;9585;51.018;4.282;2023-05-07T03:00:22;13.00;99.90
18906;DHT22;9585;51.018;4.282;2023-05-07T03:02:51;13.10;99.90
18906;DHT22;9585;51.018;4.282;2023-05-07T03:05:18;13.10;99.90
18906;DHT22;9585;51.018;4.282;2023-05-07T03:07:46;13.10;99.90
18906;DHT22;9585;51.018;4.282;2023-05-07T03:10:13;13.20;99.90
18906;DHT22;9585;51.018;4.282;2023-05-07T03:12:41;13.20;99.90
18906;DHT22;9585;51.018;4.282;2023-05-07T03:15:09;13.20;99.90
18906;DHT22;9585;51.018;4.282;2023-05-07T03:17:38;13.20;99.90
18906;DHT22;9585;51.018;4.282;2023-05-07T03:20:08;13.20;99.90
18906;DHT22;9585;51.018;4.282;2023-05-07T03:22:36;13.20;99.90
18906;DHT22;9585;51.018;4.282;2023-05-07T03:25:05;13.20;99.90
18906;DHT22;9585;51.018;4.282;2023-05-07T03:27:33;13.30;99.90
18906;DHT22;9585;51.018;4.282;2023-05-07T03:30:00;13.20;99.90
18906;DHT22;9585;51.018;4.282;2023-05-07T03:32:28;13.20;99.90
18906;DHT22;9585;51.018;4.282;2023-05-07T03:34:55;13.20;99.90
18906;DHT22;9585;51.018;4.282;2023-05-07T03:37:24;13.20;99.90
18906;DHT22;9585;51.018;4.282;2023-05-07T03:39:52;13.20;99.90
18906;DHT22;9585;51.018;4.282;2023-05-07T03:42:19;13.20;99.90
18906;DHT22;9585;51.018;4.282;2023-05-07T03:44:47;13.30;99.90
18906;DHT22;9585;51.018;4.282;2023-05-07T03:47:15;13.30;99.90
18906;DHT22;9585;51.018;4.282;2023-05-07T03:49:43;13.30;99.90
18906;DHT22;9585;51.018;4.282;2023-05-07T03:52:19;13.30;99.90
18906;DHT22;9585;51.018;4.282;2023-05-07T03:54:52;13.30;99.90
18906;DHT22;9585;51.018;4.282;2023-05-07T03:57:20;13.40;99.90
18906;DHT22;9585;51.018;4.282;2023-05-07T03:59:47;13.40;99.90
18906;DHT22;9585;51.018;4.282;2023-05-07T04:02:15;13.40;99.90
18906;DHT22;9585;51.018;4.282;2023-05-07T04:04:43;13.40;99.90
18906;DHT22;9585;51.018;4.282;2023-05-07T04:07:10;13.50;99.90
18906;DHT22;9585;51.018;4.282;2023-05-07T04:09:38;13.50;99.90
18906;DHT22;9585;51.018;4.282;2023-05-07T04:12:07;13.50;99.90
18906;DHT22;9585;51.018;4.282;2023-05-07T04:14:34;13.50;99.90
18906;DHT22;9585;51.018;4.282;2023-05-07T04:17:02;13.50;99.90
18906;DHT22;9585;51.018;4.282;2023-05-07T04:19:29;13.50;99.90
18906;DHT22;9585;51.018;4.282;2023-05-07T04:21:57;13.50;99.90
18906;DHT22;9585;51.018;4.282;2023-05-07T04:24:25;13.50;99.90
18906;DHT22;9585;51.018;4.282;2023-05-07T04:26:52;13.50;99.90
18906;DHT22;9585;51.018;4.282;2023-05-07T04:29:22;13.50;99.90
18906;DHT22;9585;51.018;4.282;2023-05-07T04:31:50;13.50;99.90
18906;DHT22;9585;51.018;4.282;2023-05-07T04:34:17;13.50;99.90
18906;DHT22;9585;51.018;4.282;2023-05-07T04:36:45;13.50;99.90
18906;DHT22;9585;51.018;4.282;2023-05-07T04:39:14;13.60;99.90
18906;DHT22;9585;51.018;4.282;2023-05-07T04:41:42;13.60;99.90
18906;DHT22;9585;51.018;4.282;2023-05-07T04:44:09;13.60;99.90
18906;DHT22;9585;51.018;4.282;2023-05-07T04:46:38;13.70;99.90
18906;DHT22;9585;51.018;4.282;2023-05-07T04:49:05;13.70;99.90
18906;DHT22;9585;51.018;4.282;2023-05-07T04:51:33;13.70;99.90
18906;DHT22;9585;51.018;4.282;2023-05-07T04:54:01;13.80;99.90
18906;DHT22;9585;51.018;4.282;2023-05-07T04:56:28;13.80;99.90
18906;DHT22;9585;51.018;4.282;2023-05-07T04:58:56;13.80;99.90
18906;DHT22;9585;51.018;4.282;2023-05-07T05:01:24;13.90;99.90
18906;DHT22;9585;51.018;4.282;2023-05-07T05:03:53;13.90;99.90
18906;DHT22;9585;51.018;4.282;2023-05-07T05:06:20;14.00;99.90
18906;DHT22;9585;51.018;4.282;2023-05-07T05:08:48;14.00;99.90
18906;DHT22;9585;51.018;4.282;2023-05-07T05:11:15;14.10;99.90
18906;DHT22;9585;51.018;4.282;2023-05-07T05:13:43;14.10;99.90
18906;DHT22;9585;51.018;4.282;2023-05-07T05:16:10;14.20;99.90
18906;DHT22;9585;51.018;4.282;2023-05-07T05:18:38;14.20;99.90
18906;DHT22;9585;51.018;4.282;2023-05-07T05:21:38;14.20;99.90
18906;DHT22;9585;51.018;4.282;2023-05-07T05:24:12;14.30;99.90
18906;DHT22;9585;51.018;4.282;2023-05-07T05:26:41;14.40;99.90
18906;DHT22;9585;51.018;4.282;2023-05-07T05:29:08;14.40;99.90
18906;DHT22;9585;51.018;4.282;2023-05-07T05:31:36;14.50;99.90
18906;DHT22;9585;51.018;4.282;2023-05-07T05:34:04;14.60;99.90
18906;DHT22;9585;51.018;4.282;2023-05-07T05:36:33;14.60;99.90
18906;DHT22;9585;51.018;4.282;2023-05-07T05:39:00;14.60;99.90
18906;DHT22;9585;51.018;4.282;2023-05-07T05:41:28;14.70;99.90
18906;DHT22;9585;51.018;4.282;2023-05-07T05:43:55;14.70;99.90
18906;DHT22;9585;51.018;4.282;2023-05-07T05:46:23;14.70;99.90
18906;DHT22;9585;51.018;4.282;2023-05-07T05:48:50;14.70;99.90
18906;DHT22;9585;51.018;4.282;2023-05-07T05:51:18;14.80;99.90
18906;DHT22;9585;51.018;4.282;2023-05-07T05:53:47;14.80;99.90
18906;DHT22;9585;51.018;4.282;2023-05-07T05:56:15;14.80;99.90
18906;DHT22;9585;51.018;4.282;2023-05-07T05:58:43;14.70;99.90
18906;DHT22;9585;51.018;4.282;2023-05-07T06:01:10;14.60;99.90
18906;DHT22;9585;51.018;4.282;2023-05-07T06:03:38;14.50;99.90
18906;DHT22;9585;51.018;4.282;2023-05-07T06:06:06;14.50;99.90
18906;DHT22;9585;51.018;4.282;2023-05-07T06:08:36;14.60;99.90
18906;DHT22;9585;51.018;4.282;2023-05-07T06:11:05;14.80;99.90
18906;DHT22;9585;51.018;4.282;2023-05-07T06:13:33;14.80;99.90
18906;DHT22;9585;51.018;4.282;2023-05-07T06:16:00;14.90;99.90
18906;DHT22;9585;51.018;4.282;2023-05-07T06:18:30;14.90;99.90
18906;DHT22;9585;51.018;4.282;2023-05-07T06:20:58;14.80;99.90
18906;DHT22;9585;51.018;4.282;2023-05-07T06:23:25;14.80;99.90
18906;DHT22;9585;51.018;4.282;2023-05-07T06:25:53;14.80;99.90
18906;DHT22;9585;51.018;4.282;2023-05-07T06:28:25;14.80;99.90
18906;DHT22;9585;51.018;4.282;2023-05-07T06:30:53;14.90;99.90
18906;DHT22;9585;51.018;4.282;2023-05-07T06:33:21;14.90;99.90
18906;DHT22;9585;51.018;4.282;2023-05-07T06:35:48;15.00;99.90
18906;DHT22;9585;51.018;4.282;2023-05-07T06:38:22;15.00;99.90
18906;DHT22;9585;51.018;4.282;2023-05-07T06:40:50;15.10;99.90
18906;DHT22;9585;51.018;4.282;2023-05-07T06:43:17;15.10;99.90
18906;DHT22;9585;51.018;4.282;2023-05-07T06:45:46;15.10;99.90
18906;DHT22;9585;51.018;4.282;2023-05-07T06:48:14;15.10;99.90
18906;DHT22;9585;51.018;4.282;2023-05-07T06:50:42;15.20;99.90
18906;DHT22;9585;51.018;4.282;2023-05-07T06:53:10;15.20;99.90
18906;DHT22;9585;51.018;4.282;2023-05-07T06:55:38;15.30;99.90
18906;DHT22;9585;51.018;4.282;2023-05-07T06:58:08;15.30;99.90
18906;DHT22;9585;51.018;4.282;2023-05-07T07:00:36;15.30;99.90
18906;DHT22;9585;51.018;4.282;2023-05-07T07:03:06;15.30;99.90
18906;DHT22;9585;51.018;4.282;2023-05-07T07:05:33;15.40;99.90
18906;DHT22;9585;51.018;4.282;2023-05-07T07:08:01;15.40;99.90
18906;DHT22;9585;51.018;4.282;2023-05-07T07:10:29;15.40;99.90
18906;DHT22;9585;51.018;4.282;2023-05-07T07:12:56;15.50;99.90
18906;DHT22;9585;51.018;4.282;2023-05-07T07:15:24;15.60;99.90
18906;DHT22;9585;51.018;4.282;2023-05-07T07:17:51;15.60;99.90
18906;DHT22;9585;51.018;4.282;2023-05-07T07:20:21;15.70;99.90
18906;DHT22;9585;51.018;4.282;2023-05-07T07:22:48;15.60;99.90
18906;DHT22;9585;51.018;4.282;2023-05-07T07:25:16;15.70;99.90
18906;DHT22;9585;51.018;4.282;2023-05-07T07:27:43;15.60;99.90
18906;DHT22;9585;51.018;4.282;2023-05-07T07:30:13;15.60;99.90
18906;DHT22;9585;51.018;4.282;2023-05-07T07:32:41;15.60;99.90
18906;DHT22;9585;51.018;4.282;2023-05-07T07:35:09;15.60;99.90
18906;DHT22;9585;51.018;4.282;2023-05-07T07:37:38;15.60;99.90
18906;DHT22;9585;51.018;4.282;2023-05-07T07:40:07;15.60;99.90
18906;DHT22;9585;51.018;4.282;2023-05-07T07:42:35;15.60;99.90
18906;DHT22;9585;51.018;4.282;2023-05-07T07:45:03;15.70;99.90
18906;DHT22;9585;51.018;4.282;2023-05-07T07:47:30;15.60;99.90
18906;DHT22;9585;51.018;4.282;2023-05-07T07:49:58;15.70;99.90
18906;DHT22;9585;51.018;4.282;2023-05-07T07:52:25;15.80;99.90
18906;DHT22;9585;51.018;4.282;2023-05-07T07:54:54;15.80;99.90
18906;DHT22;9585;51.018;4.282;2023-05-07T07:57:21;15.80;99.90
18906;DHT22;9585;51.018;4.282;2023-05-07T07:59:49;15.80;99.90
18906;DHT22;9585;51.018;4.282;2023-05-07T08:02:17;15.90;99.90
18906;DHT22;9585;51.018;4.282;2023-05-07T08:04:45;15.90;99.90
18906;DHT22;9585;51.018;4.282;2023-05-07T08:07:12;15.80;99.90
18906;DHT22;9585;51.018;4.282;2023-05-07T08:09:40;15.90;99.90
18906;DHT22;9585;51.018;4.282;2023-05-07T08:12:09;15.80;99.90
18906;DHT22;9585;51.018;4.282;2023-05-07T08:14:37;15.90;99.90
18906;DHT22;9585;51.018;4.282;2023-05-07T08:17:04;15.90;99.90
18906;DHT22;9585;51.018;4.282;2023-05-07T08:19:32;16.00;99.90
18906;DHT22;9585;51.018;4.282;2023-05-07T08:22:00;16.00;99.90
18906;DHT22;9585;51.018;4.282;2023-05-07T08:24:28;16.00;99.90
18906;DHT22;9585;51.018;4.282;2023-05-07T08:26:56;16.10;99.90
18906;DHT22;9585;51.018;4.282;2023-05-07T08:29:27;16.20;99.90
18906;DHT22;9585;51.018;4.282;2023-05-07T08:31:57;16.40;99.90
18906;DHT22;9585;51.018;4.282;2023-05-07T08:34:25;16.40;99.90
18906;DHT22;9585;51.018;4.282;2023-05-07T08:36:52;16.50;99.90
18906;DHT22;9585;51.018;4.282;2023-05-07T08:39:21;16.60;99.90
18906;DHT22;9585;51.018;4.282;2023-05-07T08:41:49;16.60;99.90
18906;DHT22;9585;51.018;4.282;2023-05-07T08:44:21;16.60;99.90
18906;DHT22;9585;51.018;4.282;2023-05-07T08:46:56;16.70;99.90
18906;DHT22;9585;51.018;4.282;2023-05-07T08:49:24;16.80;99.90
18906;DHT22;9585;51.018;4.282;2023-05-07T08:51:51;16.70;99.90
18906;DHT22;9585;51.018;4.282;2023-05-07T08:54:20;16.60;99.90
18906;DHT22;9585;51.018;4.282;2023-05-07T08:56:48;16.70;99.90
18906;DHT22;9585;51.018;4.282;2023-05-07T08:59:17;16.70;99.90
18906;DHT22;9585;51.018;4.282;2023-05-07T09:01:45;16.90;99.90
18906;DHT22;9585;51.018;4.282;2023-05-07T09:04:15;16.90;99.90
18906;DHT22;9585;51.018;4.282;2023-05-07T09:06:45;16.90;99.90
18906;DHT22;9585;51.018;4.282;2023-05-07T09:09:15;17.00;99.90
18906;DHT22;9585;51.018;4.282;2023-05-07T09:11:44;17.00;99.90
18906;DHT22;9585;51.018;4.282;2023-05-07T09:14:13;17.10;99.90
18906;DHT22;9585;51.018;4.282;2023-05-07T09:16:40;17.10;99.90
18906;DHT22;9585;51.018;4.282;2023-05-07T09:19:08;17.10;99.90
18906;DHT22;9585;51.018;4.282;2023-05-07T09:21:37;17.10;99.90
18906;DHT22;9585;51.018;4.282;2023-05-07T09:24:06;17.10;99.90
18906;DHT22;9585;51.018;4.282;2023-05-07T09:26:33;17.10;99.90
18906;DHT22;9585;51.018;4.282;2023-05-07T09:29:01;17.10;99.90
18906;DHT22;9585;51.018;4.282;2023-05-07T09:31:28;17.20;99.90
18906;DHT22;9585;51.018;4.282;2023-05-07T09:33:56;17.10;99.90
18906;DHT22;9585;51.018;4.282;2023-05-07T09:36:24;17.20;99.90
18906;DHT22;9585;51.018;4.282;2023-05-07T09:38:53;17.20;99.90
18906;DHT22;9585;51.018;4.282;2023-05-07T09:41:22;17.20;99.90
18906;DHT22;9585;51.018;4.282;2023-05-07T09:43:53;17.10;99.90
18906;DHT22;9585;51.018;4.282;2023-05-07T09:46:25;17.00;99.90
18906;DHT22;9585;51.018;4.282;2023-05-07T09:48:53;17.10;99.90
18906;DHT22;9585;51.018;4.282;2023-05-07T09:51:29;17.20;99.90
18906;DHT22;9585;51.018;4.282;2023-05-07T09:53:58;17.10;99.90
18906;DHT22;9585;51.018;4.282;2023-05-07T09:56:29;17.10;99.90
18906;DHT22;9585;51.018;4.282;2023-05-07T09:59:00;17.10;99.90
18906;DHT22;9585;51.018;4.282;2023-05-07T10:01:29;17.10;99.90
18906;DHT22;9585;51.018;4.282;2023-05-07T10:03:58;17.20;99.90
18906;DHT22;9585;51.018;4.282;2023-05-07T10:06:26;17.30;99.90
18906;DHT22;9585;51.018;4.282;2023-05-07T10:08:55;17.30;99.90
18906;DHT22;9585;51.018;4.282;2023-05-07T10:11:24;17.20;99.90
18906;DHT22;9585;51.018;4.282;2023-05-07T10:13:52;17.30;99.90
18906;DHT22;9585;51.018;4.282;2023-05-07T10:16:21;17.40;99.90
18906;DHT22;9585;51.018;4.282;2023-05-07T10:18:50;17.30;99.90
18906;DHT22;9585;51.018;4.282;2023-05-07T10:21:19;17.30;99.90
18906;DHT22;9585;51.018;4.282;2023-05-07T10:23:50;17.40;99.90
18906;DHT22;9585;51.018;4.282;2023-05-07T10:26:18;17.40;99.90
18906;DHT22;9585;51.018;4.282;2023-05-07T10:29:02;17.40;99.90
18906;DHT22;9585;51.018;4.282;2023-05-07T10:31:53;17.50;99.90
18906;DHT22;9585;51.018;4.282;2023-05-07T10:34:24;17.50;99.90
18906;DHT22;9585;51.018;4.282;2023-05-07T10:36:54;17.60;99.90
18906;DHT22;9585;51.018;4.282;2023-05-07T10:39:23;17.60;99.90
18906;DHT22;9585;51.018;4.282;2023-05-07T10:41:51;17.70;99.90
18906;DHT22;9585;51.018;4.282;2023-05-07T10:44:27;17.60;99.90
18906;DHT22;9585;51.018;4.282;2023-05-07T10:47:13;17.60;99.90
18906;DHT22;9585;51.018;4.282;2023-05-07T10:52:44;17.70;99.90
18906;DHT22;9585;51.018;4.282;2023-05-07T10:55:22;17.70;99.90
18906;DHT22;9585;51.018;4.282;2023-05-07T10:57:51;17.90;99.90
18906;DHT22;9585;51.018;4.282;2023-05-07T11:00:44;18.00;99.90
18906;DHT22;9585;51.018;4.282;2023-05-07T11:03:12;18.10;99.90
18906;DHT22;9585;51.018;4.282;2023-05-07T11:05:41;18.20;99.90
18906;DHT22;9585;51.018;4.282;2023-05-07T11:08:09;18.30;99.90
18906;DHT22;9585;51.018;4.282;2023-05-07T11:10:51;18.30;99.90
18906;DHT22;9585;51.018;4.282;2023-05-07T11:16:04;18.30;99.90
18906;DHT22;9585;51.018;4.282;2023-05-07T11:18:47;18.20;99.90
18906;DHT22;9585;51.018;4.282;2023-05-07T11:21:33;18.20;99.90
18906;DHT22;9585;51.018;4.282;2023-05-07T11:24:02;18.10;99.90
18906;DHT22;9585;51.018;4.282;2023-05-07T11:26:31;18.20;99.90
18906;DHT22;9585;51.018;4.282;2023-05-07T11:29:00;18.20;99.90
18906;DHT22;9585;51.018;4.282;2023-05-07T11:31:29;18.30;99.90
18906;DHT22;9585;51.018;4.282;2023-05-07T11:33:58;18.40;99.90
18906;DHT22;9585;51.018;4.282;2023-05-07T11:36:31;18.50;99.90
18906;DHT22;9585;51.018;4.282;2023-05-07T11:38:59;18.40;99.90
18906;DHT22;9585;51.018;4.282;2023-05-07T11:41:34;18.30;99.90
18906;DHT22;9585;51.018;4.282;2023-05-07T11:44:03;18.40;99.90
18906;DHT22;9585;51.018;4.282;2023-05-07T11:46:43;18.50;99.90
18906;DHT22;9585;51.018;4.282;2023-05-07T11:49:11;18.40;99.90
18906;DHT22;9585;51.018;4.282;2023-05-07T11:51:39;18.40;99.90
18906;DHT22;9585;51.018;4.282;2023-05-07T11:54:08;18.50;99.90
18906;DHT22;9585;51.018;4.282;2023-05-07T11:56:37;18.50;99.90
18906;DHT22;9585;51.018;4.282;2023-05-07T11:59:05;18.60;99.90
18906;DHT22;9585;51.018;4.282;2023-05-07T12:01:35;18.40;99.90
18906;DHT22;9585;51.018;4.282;2023-05-07T12:04:03;18.50;99.90
18906;DHT22;9585;51.018;4.282;2023-05-07T12:06:35;18.70;99.90
18906;DHT22;9585;51.018;4.282;2023-05-07T12:09:03;18.70;99.90
18906;DHT22;9585;51.018;4.282;2023-05-07T12:11:33;18.80;99.90
18906;DHT22;9585;51.018;4.282;2023-05-07T12:14:01;18.90;99.90
18906;DHT22;9585;51.018;4.282;2023-05-07T12:16:30;18.70;99.90
18906;DHT22;9585;51.018;4.282;2023-05-07T12:19:02;18.80;99.90
18906;DHT22;9585;51.018;4.282;2023-05-07T12:21:30;18.70;99.90
18906;DHT22;9585;51.018;4.282;2023-05-07T12:23:58;18.80;99.90
18906;DHT22;9585;51.018;4.282;2023-05-07T12:26:25;18.90;99.90
18906;DHT22;9585;51.018;4.282;2023-05-07T12:28:53;19.00;99.90
18906;DHT22;9585;51.018;4.282;2023-05-07T12:31:21;19.10;99.90
18906;DHT22;9585;51.018;4.282;2023-05-07T12:33:48;19.20;99.90
18906;DHT22;9585;51.018;4.282;2023-05-07T12:36:18;19.30;99.90
18906;DHT22;9585;51.018;4.282;2023-05-07T12:38:49;19.30;99.90
18906;DHT22;9585;51.018;4.282;2023-05-07T12:41:17;19.40;99.90
18906;DHT22;9585;51.018;4.282;2023-05-07T12:43:45;19.60;99.90
18906;DHT22;9585;51.018;4.282;2023-05-07T12:46:13;19.50;99.90
18906;DHT22;9585;51.018;4.282;2023-05-07T12:48:45;19.50;99.90
18906;DHT22;9585;51.018;4.282;2023-05-07T12:51:13;19.60;99.90
18906;DHT22;9585;51.018;4.282;2023-05-07T12:53:43;19.50;99.90
18906;DHT22;9585;51.018;4.282;2023-05-07T12:56:10;19.40;99.90
18906;DHT22;9585;51.018;4.282;2023-05-07T12:58:42;19.20;99.90
18906;DHT22;9585;51.018;4.282;2023-05-07T13:01:12;19.10;99.90
18906;DHT22;9585;51.018;4.282;2023-05-07T13:03:41;19.30;99.90
18906;DHT22;9585;51.018;4.282;2023-05-07T13:06:16;19.40;99.90
18906;DHT22;9585;51.018;4.282;2023-05-07T13:08:55;19.60;99.90
18906;DHT22;9585;51.018;4.282;2023-05-07T13:11:23;19.80;99.90
18906;DHT22;9585;51.018;4.282;2023-05-07T13:13:51;19.50;99.90
18906;DHT22;9585;51.018;4.282;2023-05-07T13:16:18;19.60;99.90
18906;DHT22;9585;51.018;4.282;2023-05-07T13:18:46;19.60;99.90
18906;DHT22;9585;51.018;4.282;2023-05-07T13:21:14;19.50;99.90
18906;DHT22;9585;51.018;4.282;2023-05-07T13:23:41;19.60;99.90
18906;DHT22;9585;51.018;4.282;2023-05-07T13:26:10;19.90;99.90
18906;DHT22;9585;51.018;4.282;2023-05-07T13:28:38;19.90;99.90
18906;DHT22;9585;51.018;4.282;2023-05-07T13:31:06;19.80;99.90
18906;DHT22;9585;51.018;4.282;2023-05-07T13:33:35;19.90;99.90
18906;DHT22;9585;51.018;4.282;2023-05-07T13:36:03;19.60;99.90
18906;DHT22;9585;51.018;4.282;2023-05-07T13:38:34;19.40;99.90
18906;DHT22;9585;51.018;4.282;2023-05-07T13:41:01;19.40;99.90
18906;DHT22;9585;51.018;4.282;2023-05-07T13:43:39;19.60;99.90
18906;DHT22;9585;51.018;4.282;2023-05-07T13:46:09;19.80;99.90
18906;DHT22;9585;51.018;4.282;2023-05-07T13:48:37;19.70;99.90
18906;DHT22;9585;51.018;4.282;2023-05-07T13:51:04;19.90;99.90
18906;DHT22;9585;51.018;4.282;2023-05-07T13:53:32;20.00;99.90
18906;DHT22;9585;51.018;4.282;2023-05-07T13:56:00;20.20;99.90
18906;DHT22;9585;51.018;4.282;2023-05-07T13:58:27;20.30;99.90
18906;DHT22;9585;51.018;4.282;2023-05-07T14:00:56;20.40;99.90
18906;DHT22;9585;51.018;4.282;2023-05-07T14:03:23;20.40;99.90
18906;DHT22;9585;51.018;4.282;2023-05-07T14:05:51;20.40;99.90
18906;DHT22;9585;51.018;4.282;2023-05-07T14:08:19;20.40;99.90
18906;DHT22;9585;51.018;4.282;2023-05-07T14:10:46;20.10;99.90
18906;DHT22;9585;51.018;4.282;2023-05-07T14:13:14;20.00;99.90
18906;DHT22;9585;51.018;4.282;2023-05-07T14:15:41;19.70;99.90
18906;DHT22;9585;51.018;4.282;2023-05-07T14:18:13;19.70;99.90
18906;DHT22;9585;51.018;4.282;2023-05-07T14:20:41;19.50;99.90
18906;DHT22;9585;51.018;4.282;2023-05-07T14:23:09;19.60;99.90
18906;DHT22;9585;51.018;4.282;2023-05-07T14:25:36;19.50;99.90
18906;DHT22;9585;51.018;4.282;2023-05-07T14:28:04;19.50;99.90
18906;DHT22;9585;51.018;4.282;2023-05-07T14:30:31;19.50;99.90
18906;DHT22;9585;51.018;4.282;2023-05-07T14:32:59;19.50;99.90
18906;DHT22;9585;51.018;4.282;2023-05-07T14:35:28;19.50;99.90
18906;DHT22;9585;51.018;4.282;2023-05-07T14:37:55;19.50;99.90
18906;DHT22;9585;51.018;4.282;2023-05-07T14:40:22;19.60;99.90
18906;DHT22;9585;51.018;4.282;2023-05-07T14:42:50;19.60;99.90
18906;DHT22;9585;51.018;4.282;2023-05-07T14:45:17;19.50;99.90
18906;DHT22;9585;51.018;4.282;2023-05-07T14:47:45;19.60;99.90
18906;DHT22;9585;51.018;4.282;2023-05-07T14:50:12;19.60;99.90
18906;DHT22;9585;51.018;4.282;2023-05-07T14:52:42;19.60;99.90
18906;DHT22;9585;51.018;4.282;2023-05-07T14:55:09;19.70;99.90
18906;DHT22;9585;51.018;4.282;2023-05-07T14:57:37;19.60;99.90
18906;DHT22;9585;51.018;4.282;2023-05-07T15:00:05;19.70;99.90
18906;DHT22;9585;51.018;4.282;2023-05-07T15:02:34;19.80;99.90
18906;DHT22;9585;51.018;4.282;2023-05-07T15:05:01;19.90;99.90
18906;DHT22;9585;51.018;4.282;2023-05-07T15:07:29;19.80;99.90
18906;DHT22;9585;51.018;4.282;2023-05-07T15:10:00;19.80;99.90
18906;DHT22;9585;51.018;4.282;2023-05-07T15:12:27;19.60;99.90
18906;DHT22;9585;51.018;4.282;2023-05-07T15:14:55;19.50;99.90
18906;DHT22;9585;51.018;4.282;2023-05-07T15:17:22;19.50;99.90
18906;DHT22;9585;51.018;4.282;2023-05-07T15:19:49;19.60;99.90
18906;DHT22;9585;51.018;4.282;2023-05-07T15:22:17;19.70;99.90
18906;DHT22;9585;51.018;4.282;2023-05-07T15:24:45;19.80;99.90
18906;DHT22;9585;51.018;4.282;2023-05-07T15:27:14;19.60;99.90
18906;DHT22;9585;51.018;4.282;2023-05-07T15:29:42;19.70;99.90
18906;DHT22;9585;51.018;4.282;2023-05-07T15:32:10;19.80;99.90
18906;DHT22;9585;51.018;4.282;2023-05-07T15:34:37;19.80;99.90
18906;DHT22;9585;51.018;4.282;2023-05-07T15:37:05;19.80;99.90
18906;DHT22;9585;51.018;4.282;2023-05-07T15:39:32;19.90;99.90
18906;DHT22;9585;51.018;4.282;2023-05-07T15:42:00;19.90;99.90
18906;DHT22;9585;51.018;4.282;2023-05-07T15:44:30;19.90;99.90
18906;DHT22;9585;51.018;4.282;2023-05-07T15:46:59;19.90;99.90
18906;DHT22;9585;51.018;4.282;2023-05-07T15:49:26;20.00;99.90
18906;DHT22;9585;51.018;4.282;2023-05-07T15:51:54;19.80;99.90
18906;DHT22;9585;51.018;4.282;2023-05-07T15:54:22;19.80;99.90
18906;DHT22;9585;51.018;4.282;2023-05-07T15:56:50;19.80;99.90
18906;DHT22;9585;51.018;4.282;2023-05-07T15:59:17;19.80;99.90
18906;DHT22;9585;51.018;4.282;2023-05-07T16:01:47;19.60;99.90
18906;DHT22;9585;51.018;4.282;2023-05-07T16:04:14;19.50;99.90